sensor_id;sensor_type;location;lat;lon;timestamp;P1;durP1;ratioP1;P2;durP2;ratioP2
30505;SDS011;17292;51.600;4.994;2023-07-24T00:00:58;4.05;;;3.85;;
30505;SDS011;17292;51.600;4.994;2023-07-24T00:03:24;3.88;;;3.67;;
30505;SDS011;17292;51.600;4.994;2023-07-24T00:05:51;4.30;;;4.00;;
30505;SDS011;17292;51.600;4.994;2023-07-24T00:08:17;3.72;;;3.53;;
30505;SDS011;17292;51.600;4.994;2023-07-24T00:10:43;4.13;;;3.85;;
30505;SDS011;17292;51.600;4.994;2023-07-24T00:13:09;4.30;;;4.10;;
30505;SDS011;17292;51.600;4.994;2023-07-24T00:15:35;4.18;;;3.97;;
30505;SDS011;17292;51.600;4.994;2023-07-24T00:18:04;4.47;;;4.18;;
30505;SDS011;17292;51.600;4.994;2023-07-24T00:20:30;4.45;;;4.15;;
30505;SDS011;17292;51.600;4.994;2023-07-24T00:22:56;3.85;;;3.60;;
30505;SDS011;17292;51.600;4.994;2023-07-24T00:25:22;4.40;;;4.10;;
30505;SDS011;17292;51.600;4.994;2023-07-24T00:27:49;4.28;;;3.97;;
30505;SDS011;17292;51.600;4.994;2023-07-24T00:30:15;4.45;;;4.15;;
30505;SDS011;17292;51.600;4.994;2023-07-24T00:32:41;4.20;;;4.00;;
30505;SDS011;17292;51.600;4.994;2023-07-24T00:35:07;4.32;;;4.03;;
30505;SDS011;17292;51.600;4.994;2023-07-24T00:37:34;4.25;;;3.95;;
30505;SDS011;17292;51.600;4.994;2023-07-24T00:40:00;4.18;;;3.90;;
30505;SDS011;17292;51.600;4.994;2023-07-24T00:42:26;4.28;;;3.97;;
30505;SDS011;17292;51.600;4.994;2023-07-24T00:44:52;4.05;;;3.85;;
30505;SDS011;17292;51.600;4.994;2023-07-24T00:47:18;4.10;;;3.90;;
30505;SDS011;17292;51.600;4.994;2023-07-24T00:49:44;3.95;;;3.72;;
30505;SDS011;17292;51.600;4.994;2023-07-24T00:52:11;4.28;;;4.07;;
30505;SDS011;17292;51.600;4.994;2023-07-24T00:54:37;4.07;;;3.88;;
30505;SDS011;17292;51.600;4.994;2023-07-24T00:57:04;3.88;;;3.67;;
30505;SDS011;17292;51.600;4.994;2023-07-24T00:59:30;4.03;;;3.72;;
30505;SDS011;17292;51.600;4.994;2023-07-24T01:01:57;3.97;;;3.78;;
30505;SDS011;17292;51.600;4.994;2023-07-24T01:04:23;3.90;;;3.70;;
30505;SDS011;17292;51.600;4.994;2023-07-24T01:06:49;4.28;;;3.97;;
30505;SDS011;17292;51.600;4.994;2023-07-24T01:09:16;4.32;;;4.03;;
30505;SDS011;17292;51.600;4.994;2023-07-24T01:17:00;4.50;;;4.20;;
30505;SDS011;17292;51.600;4.994;2023-07-24T01:19:36;4.30;;;4.00;;
30505;SDS011;17292;51.600;4.994;2023-07-24T01:22:20;4.38;;;4.07;;
30505;SDS011;17292;51.600;4.994;2023-07-24T01:27:20;4.22;;;3.92;;
30505;SDS011;17292;51.600;4.994;2023-07-24T01:29:46;3.70;;;3.50;;
30505;SDS011;17292;51.600;4.994;2023-07-24T01:32:12;4.07;;;3.88;;
30505;SDS011;17292;51.600;4.994;2023-07-24T01:34:38;4.30;;;4.00;;
30505;SDS011;17292;51.600;4.994;2023-07-24T01:37:04;4.22;;;3.92;;
30505;SDS011;17292;51.600;4.994;2023-07-24T01:39:31;4.22;;;3.92;;
30505;SDS011;17292;51.600;4.994;2023-07-24T01:41:57;3.90;;;3.70;;
30505;SDS011;17292;51.600;4.994;2023-07-24T01:44:23;4.43;;;4.13;;
30505;SDS011;17292;51.600;4.994;2023-07-24T01:46:49;4.38;;;4.07;;
30505;SDS011;17292;51.600;4.994;2023-07-24T01:49:15;4.05;;;3.85;;
30505;SDS011;17292;51.600;4.994;2023-07-24T01:51:42;4.35;;;4.05;;
30505;SDS011;17292;51.600;4.994;2023-07-24T01:54:08;3.90;;;3.70;;
30505;SDS011;17292;51.600;4.994;2023-07-24T01:56:35;3.97;;;3.78;;
30505;SDS011;17292;51.600;4.994;2023-07-24T01:59:04;4.50;;;4.20;;
30505;SDS011;17292;51.600;4.994;2023-07-24T02:01:31;3.72;;;3.53;;
30505;SDS011;17292;51.600;4.994;2023-07-24T02:03:57;4.03;;;3.80;;
30505;SDS011;17292;51.600;4.994;2023-07-24T02:06:23;3.92;;;3.63;;
30505;SDS011;17292;51.600;4.994;2023-07-24T02:08:49;4.00;;;3.70;;
30505;SDS011;17292;51.600;4.994;2023-07-24T02:11:16;4.18;;;3.88;;
30505;SDS011;17292;51.600;4.994;2023-07-24T02:13:46;4.07;;;3.78;;
30505;SDS011;17292;51.600;4.994;2023-07-24T02:16:12;4.05;;;3.85;;
30505;SDS011;17292;51.600;4.994;2023-07-24T02:18:42;4.03;;;3.72;;
30505;SDS011;17292;51.600;4.994;2023-07-24T02:21:09;3.65;;;3.45;;
30505;SDS011;17292;51.600;4.994;2023-07-24T02:23:35;3.80;;;3.60;;
30505;SDS011;17292;51.600;4.994;2023-07-24T02:26:01;3.90;;;3.70;;
30505;SDS011;17292;51.600;4.994;2023-07-24T02:28:27;3.75;;;3.55;;
30505;SDS011;17292;51.600;4.994;2023-07-24T02:30:53;3.88;;;3.67;;
30505;SDS011;17292;51.600;4.994;2023-07-24T02:33:24;3.75;;;3.55;;
30505;SDS011;17292;51.600;4.994;2023-07-24T02:35:51;3.83;;;3.63;;
30505;SDS011;17292;51.600;4.994;2023-07-24T02:38:17;3.63;;;3.42;;
30505;SDS011;17292;51.600;4.994;2023-07-24T02:40:44;3.83;;;3.58;;
30505;SDS011;17292;51.600;4.994;2023-07-24T02:43:10;3.90;;;3.70;;
30505;SDS011;17292;51.600;4.994;2023-07-24T02:45:37;4.28;;;3.97;;
30505;SDS011;17292;51.600;4.994;2023-07-24T02:48:03;3.92;;;3.72;;
30505;SDS011;17292;51.600;4.994;2023-07-24T02:50:30;3.45;;;3.25;;
30505;SDS011;17292;51.600;4.994;2023-07-24T02:52:56;3.90;;;3.67;;
30505;SDS011;17292;51.600;4.994;2023-07-24T02:55:22;3.95;;;3.72;;
30505;SDS011;17292;51.600;4.994;2023-07-24T02:57:48;3.78;;;3.47;;
30505;SDS011;17292;51.600;4.994;2023-07-24T03:00:14;4.05;;;3.85;;
30505;SDS011;17292;51.600;4.994;2023-07-24T03:02:40;3.80;;;3.60;;
30505;SDS011;17292;51.600;4.994;2023-07-24T03:05:07;4.15;;;3.92;;
30505;SDS011;17292;51.600;4.994;2023-07-24T03:07:33;4.60;;;4.30;;
30505;SDS011;17292;51.600;4.994;2023-07-24T03:09:59;4.40;;;4.20;;
30505;SDS011;17292;51.600;4.994;2023-07-24T03:12:25;4.28;;;4.07;;
30505;SDS011;17292;51.600;4.994;2023-07-24T03:14:51;4.30;;;4.00;;
30505;SDS011;17292;51.600;4.994;2023-07-24T03:17:17;4.05;;;3.80;;
30505;SDS011;17292;51.600;4.994;2023-07-24T03:19:43;3.78;;;3.58;;
30505;SDS011;17292;51.600;4.994;2023-07-24T03:22:10;3.75;;;3.55;;
30505;SDS011;17292;51.600;4.994;2023-07-24T03:24:36;3.45;;;3.25;;
30505;SDS011;17292;51.600;4.994;2023-07-24T03:27:02;3.80;;;3.60;;
30505;SDS011;17292;51.600;4.994;2023-07-24T03:29:28;3.60;;;3.40;;
30505;SDS011;17292;51.600;4.994;2023-07-24T03:31:54;3.58;;;3.38;;
30505;SDS011;17292;51.600;4.994;2023-07-24T03:34:21;3.90;;;3.70;;
30505;SDS011;17292;51.600;4.994;2023-07-24T03:36:47;3.78;;;3.47;;
30505;SDS011;17292;51.600;4.994;2023-07-24T03:39:13;3.55;;;3.35;;
30505;SDS011;17292;51.600;4.994;2023-07-24T03:41:40;3.22;;;3.03;;
30505;SDS011;17292;51.600;4.994;2023-07-24T03:44:06;3.83;;;3.63;;
30505;SDS011;17292;51.600;4.994;2023-07-24T03:46:33;3.70;;;3.40;;
30505;SDS011;17292;51.600;4.994;2023-07-24T03:48:59;3.60;;;3.40;;
30505;SDS011;17292;51.600;4.994;2023-07-24T03:51:25;4.00;;;3.70;;
30505;SDS011;17292;51.600;4.994;2023-07-24T03:53:51;3.58;;;3.38;;
30505;SDS011;17292;51.600;4.994;2023-07-24T03:56:17;3.72;;;3.53;;
30505;SDS011;17292;51.600;4.994;2023-07-24T03:58:44;3.67;;;3.30;;
30505;SDS011;17292;51.600;4.994;2023-07-24T04:01:10;3.38;;;3.20;;
30505;SDS011;17292;51.600;4.994;2023-07-24T04:03:36;3.92;;;3.72;;
30505;SDS011;17292;51.600;4.994;2023-07-24T04:06:03;3.75;;;3.55;;
30505;SDS011;17292;51.600;4.994;2023-07-24T04:08:29;3.67;;;3.47;;
30505;SDS011;17292;51.600;4.994;2023-07-24T04:10:55;3.75;;;3.55;;
30505;SDS011;17292;51.600;4.994;2023-07-24T04:13:21;3.60;;;3.40;;
30505;SDS011;17292;51.600;4.994;2023-07-24T04:15:48;3.83;;;3.63;;
30505;SDS011;17292;51.600;4.994;2023-07-24T04:18:14;3.90;;;3.60;;
30505;SDS011;17292;51.600;4.994;2023-07-24T04:20:40;3.75;;;3.55;;
30505;SDS011;17292;51.600;4.994;2023-07-24T04:23:06;4.13;;;3.92;;
30505;SDS011;17292;51.600;4.994;2023-07-24T04:25:32;3.60;;;3.40;;
30505;SDS011;17292;51.600;4.994;2023-07-24T04:27:59;3.72;;;3.53;;
30505;SDS011;17292;51.600;4.994;2023-07-24T04:30:25;4.00;;;3.80;;
30505;SDS011;17292;51.600;4.994;2023-07-24T04:32:51;4.28;;;4.05;;
30505;SDS011;17292;51.600;4.994;2023-07-24T04:35:17;3.70;;;3.50;;
30505;SDS011;17292;51.600;4.994;2023-07-24T04:37:43;4.00;;;3.80;;
30505;SDS011;17292;51.600;4.994;2023-07-24T04:40:10;3.95;;;3.75;;
30505;SDS011;17292;51.600;4.994;2023-07-24T04:42:36;4.47;;;4.18;;
30505;SDS011;17292;51.600;4.994;2023-07-24T04:45:02;4.05;;;3.85;;
30505;SDS011;17292;51.600;4.994;2023-07-24T04:47:29;4.00;;;3.80;;
30505;SDS011;17292;51.600;4.994;2023-07-24T04:49:55;4.00;;;3.80;;
30505;SDS011;17292;51.600;4.994;2023-07-24T04:52:21;3.90;;;3.70;;
30505;SDS011;17292;51.600;4.994;2023-07-24T04:54:47;4.18;;;3.97;;
30505;SDS011;17292;51.600;4.994;2023-07-24T04:57:13;4.05;;;3.85;;
30505;SDS011;17292;51.600;4.994;2023-07-24T04:59:39;5.75;;;4.20;;
30505;SDS011;17292;51.600;4.994;2023-07-24T05:02:05;7.10;;;3.63;;
30505;SDS011;17292;51.600;4.994;2023-07-24T05:04:31;4.38;;;3.97;;
30505;SDS011;17292;51.600;4.994;2023-07-24T05:06:58;5.15;;;3.72;;
30505;SDS011;17292;51.600;4.994;2023-07-24T05:09:24;3.95;;;3.72;;
30505;SDS011;17292;51.600;4.994;2023-07-24T05:11:50;4.15;;;3.85;;
30505;SDS011;17292;51.600;4.994;2023-07-24T05:14:16;10.55;;;4.03;;
30505;SDS011;17292;51.600;4.994;2023-07-24T05:16:42;3.72;;;3.53;;
30505;SDS011;17292;51.600;4.994;2023-07-24T05:19:08;4.10;;;3.78;;
30505;SDS011;17292;51.600;4.994;2023-07-24T05:21:34;4.75;;;3.95;;
30505;SDS011;17292;51.600;4.994;2023-07-24T05:24:00;3.78;;;3.50;;
30505;SDS011;17292;51.600;4.994;2023-07-24T05:26:26;4.35;;;3.88;;
30505;SDS011;17292;51.600;4.994;2023-07-24T05:28:52;4.00;;;3.70;;
30505;SDS011;17292;51.600;4.994;2023-07-24T05:31:19;5.05;;;3.95;;
30505;SDS011;17292;51.600;4.994;2023-07-24T05:33:45;16.02;;;4.30;;
30505;SDS011;17292;51.600;4.994;2023-07-24T05:36:11;7.18;;;4.20;;
30505;SDS011;17292;51.600;4.994;2023-07-24T05:38:37;15.48;;;4.75;;
30505;SDS011;17292;51.600;4.994;2023-07-24T05:41:03;21.02;;;4.95;;
30505;SDS011;17292;51.600;4.994;2023-07-24T05:43:30;8.55;;;4.07;;
30505;SDS011;17292;51.600;4.994;2023-07-24T05:45:57;21.65;;;4.55;;
30505;SDS011;17292;51.600;4.994;2023-07-24T05:48:24;9.43;;;4.20;;
30505;SDS011;17292;51.600;4.994;2023-07-24T05:50:50;9.00;;;4.30;;
30505;SDS011;17292;51.600;4.994;2023-07-24T05:53:16;14.68;;;4.32;;
30505;SDS011;17292;51.600;4.994;2023-07-24T05:55:43;9.43;;;4.53;;
30505;SDS011;17292;51.600;4.994;2023-07-24T05:58:09;12.65;;;4.28;;
30505;SDS011;17292;51.600;4.994;2023-07-24T06:00:36;10.77;;;4.20;;
30505;SDS011;17292;51.600;4.994;2023-07-24T06:03:03;11.88;;;4.28;;
30505;SDS011;17292;51.600;4.994;2023-07-24T06:05:29;16.98;;;4.88;;
30505;SDS011;17292;51.600;4.994;2023-07-24T06:07:55;32.05;;;5.22;;
30505;SDS011;17292;51.600;4.994;2023-07-24T06:10:21;15.48;;;4.70;;
30505;SDS011;17292;51.600;4.994;2023-07-24T06:12:47;27.70;;;5.13;;
30505;SDS011;17292;51.600;4.994;2023-07-24T06:15:13;19.73;;;4.30;;
30505;SDS011;17292;51.600;4.994;2023-07-24T06:17:39;14.20;;;4.65;;
30505;SDS011;17292;51.600;4.994;2023-07-24T06:20:06;16.77;;;4.40;;
30505;SDS011;17292;51.600;4.994;2023-07-24T06:22:32;12.68;;;4.85;;
30505;SDS011;17292;51.600;4.994;2023-07-24T06:24:59;24.23;;;4.63;;
30505;SDS011;17292;51.600;4.994;2023-07-24T06:27:25;20.83;;;4.93;;
30505;SDS011;17292;51.600;4.994;2023-07-24T06:29:51;15.48;;;4.60;;
30505;SDS011;17292;51.600;4.994;2023-07-24T06:32:17;15.20;;;4.70;;
30505;SDS011;17292;51.600;4.994;2023-07-24T06:34:43;13.05;;;4.45;;
30505;SDS011;17292;51.600;4.994;2023-07-24T06:37:09;17.65;;;4.80;;
30505;SDS011;17292;51.600;4.994;2023-07-24T06:39:35;19.70;;;4.80;;
30505;SDS011;17292;51.600;4.994;2023-07-24T06:42:01;19.00;;;4.78;;
30505;SDS011;17292;51.600;4.994;2023-07-24T06:44:28;13.07;;;4.68;;
30505;SDS011;17292;51.600;4.994;2023-07-24T06:46:54;10.07;;;4.82;;
30505;SDS011;17292;51.600;4.994;2023-07-24T06:49:20;10.85;;;4.57;;
30505;SDS011;17292;51.600;4.994;2023-07-24T06:51:46;11.02;;;4.68;;
30505;SDS011;17292;51.600;4.994;2023-07-24T06:54:12;17.35;;;4.60;;
30505;SDS011;17292;51.600;4.994;2023-07-24T06:56:38;17.00;;;4.60;;
30505;SDS011;17292;51.600;4.994;2023-07-24T06:59:05;17.52;;;4.35;;
30505;SDS011;17292;51.600;4.994;2023-07-24T07:01:31;16.52;;;5.22;;
30505;SDS011;17292;51.600;4.994;2023-07-24T07:03:57;5.20;;;3.90;;
30505;SDS011;17292;51.600;4.994;2023-07-24T07:06:23;12.48;;;4.28;;
30505;SDS011;17292;51.600;4.994;2023-07-24T07:08:49;11.82;;;4.47;;
30505;SDS011;17292;51.600;4.994;2023-07-24T07:11:15;12.73;;;4.65;;
30505;SDS011;17292;51.600;4.994;2023-07-24T07:13:41;9.98;;;4.28;;
30505;SDS011;17292;51.600;4.994;2023-07-24T07:16:07;18.92;;;5.15;;
30505;SDS011;17292;51.600;4.994;2023-07-24T07:18:34;10.55;;;4.30;;
30505;SDS011;17292;51.600;4.994;2023-07-24T07:21:00;9.63;;;4.05;;
30505;SDS011;17292;51.600;4.994;2023-07-24T07:23:26;8.77;;;3.90;;
30505;SDS011;17292;51.600;4.994;2023-07-24T07:25:52;9.75;;;4.30;;
30505;SDS011;17292;51.600;4.994;2023-07-24T07:28:18;10.63;;;4.22;;
30505;SDS011;17292;51.600;4.994;2023-07-24T07:30:45;11.40;;;4.57;;
30505;SDS011;17292;51.600;4.994;2023-07-24T07:33:11;7.57;;;3.97;;
30505;SDS011;17292;51.600;4.994;2023-07-24T07:35:37;18.95;;;5.20;;
30505;SDS011;17292;51.600;4.994;2023-07-24T07:38:03;15.57;;;4.95;;
30505;SDS011;17292;51.600;4.994;2023-07-24T07:40:30;14.02;;;4.40;;
30505;SDS011;17292;51.600;4.994;2023-07-24T07:42:56;11.80;;;4.10;;
30505;SDS011;17292;51.600;4.994;2023-07-24T07:45:23;11.07;;;4.50;;
30505;SDS011;17292;51.600;4.994;2023-07-24T07:47:49;8.50;;;4.13;;
30505;SDS011;17292;51.600;4.994;2023-07-24T07:50:18;12.82;;;4.32;;
30505;SDS011;17292;51.600;4.994;2023-07-24T07:52:45;16.73;;;4.10;;
30505;SDS011;17292;51.600;4.994;2023-07-24T07:55:11;8.35;;;4.00;;
30505;SDS011;17292;51.600;4.994;2023-07-24T07:57:38;12.15;;;4.18;;
30505;SDS011;17292;51.600;4.994;2023-07-24T08:00:05;9.02;;;4.57;;
30505;SDS011;17292;51.600;4.994;2023-07-24T08:02:31;6.00;;;4.15;;
30505;SDS011;17292;51.600;4.994;2023-07-24T08:04:59;10.10;;;4.88;;
30505;SDS011;17292;51.600;4.994;2023-07-24T08:07:25;13.13;;;4.20;;
30505;SDS011;17292;51.600;4.994;2023-07-24T08:09:51;11.02;;;3.85;;
30505;SDS011;17292;51.600;4.994;2023-07-24T08:12:17;9.88;;;4.45;;
30505;SDS011;17292;51.600;4.994;2023-07-24T08:14:43;17.33;;;4.13;;
30505;SDS011;17292;51.600;4.994;2023-07-24T08:17:10;7.82;;;3.85;;
30505;SDS011;17292;51.600;4.994;2023-07-24T08:19:36;12.15;;;4.45;;
30505;SDS011;17292;51.600;4.994;2023-07-24T08:22:02;9.25;;;3.70;;
30505;SDS011;17292;51.600;4.994;2023-07-24T08:24:33;12.13;;;3.90;;
30505;SDS011;17292;51.600;4.994;2023-07-24T08:27:00;9.88;;;3.80;;
30505;SDS011;17292;51.600;4.994;2023-07-24T08:29:26;5.97;;;3.58;;
30505;SDS011;17292;51.600;4.994;2023-07-24T08:31:52;5.68;;;3.80;;
30505;SDS011;17292;51.600;4.994;2023-07-24T08:34:18;4.13;;;3.40;;
30505;SDS011;17292;51.600;4.994;2023-07-24T08:36:44;5.63;;;4.25;;
30505;SDS011;17292;51.600;4.994;2023-07-24T08:39:11;7.10;;;4.05;;
30505;SDS011;17292;51.600;4.994;2023-07-24T08:41:37;7.60;;;4.45;;
30505;SDS011;17292;51.600;4.994;2023-07-24T08:44:12;7.15;;;3.90;;
30505;SDS011;17292;51.600;4.994;2023-07-24T08:46:39;7.90;;;4.53;;
30505;SDS011;17292;51.600;4.994;2023-07-24T08:49:06;13.15;;;4.03;;
30505;SDS011;17292;51.600;4.994;2023-07-24T08:51:32;7.90;;;4.20;;
30505;SDS011;17292;51.600;4.994;2023-07-24T08:53:58;14.48;;;4.03;;
30505;SDS011;17292;51.600;4.994;2023-07-24T08:56:25;11.30;;;4.40;;
30505;SDS011;17292;51.600;4.994;2023-07-24T08:58:51;7.03;;;3.95;;
30505;SDS011;17292;51.600;4.994;2023-07-24T09:01:17;5.10;;;3.80;;
30505;SDS011;17292;51.600;4.994;2023-07-24T09:03:43;9.02;;;3.88;;
30505;SDS011;17292;51.600;4.994;2023-07-24T09:06:10;7.45;;;4.43;;
30505;SDS011;17292;51.600;4.994;2023-07-24T09:08:37;8.98;;;4.13;;
30505;SDS011;17292;51.600;4.994;2023-07-24T09:11:03;9.35;;;4.30;;
30505;SDS011;17292;51.600;4.994;2023-07-24T09:13:30;9.07;;;4.13;;
30505;SDS011;17292;51.600;4.994;2023-07-24T09:15:57;8.13;;;3.67;;
30505;SDS011;17292;51.600;4.994;2023-07-24T09:18:26;15.73;;;4.55;;
30505;SDS011;17292;51.600;4.994;2023-07-24T09:20:52;7.32;;;4.10;;
30505;SDS011;17292;51.600;4.994;2023-07-24T09:23:27;12.52;;;3.95;;
30505;SDS011;17292;51.600;4.994;2023-07-24T09:25:54;11.30;;;4.00;;
30505;SDS011;17292;51.600;4.994;2023-07-24T09:28:20;12.50;;;4.32;;
30505;SDS011;17292;51.600;4.994;2023-07-24T09:30:53;12.70;;;4.30;;
30505;SDS011;17292;51.600;4.994;2023-07-24T09:33:20;10.50;;;4.38;;
30505;SDS011;17292;51.600;4.994;2023-07-24T09:35:56;5.70;;;4.00;;
30505;SDS011;17292;51.600;4.994;2023-07-24T09:38:23;6.65;;;4.10;;
30505;SDS011;17292;51.600;4.994;2023-07-24T09:40:49;6.53;;;3.53;;
30505;SDS011;17292;51.600;4.994;2023-07-24T09:43:21;5.10;;;3.53;;
30505;SDS011;17292;51.600;4.994;2023-07-24T09:45:48;8.95;;;3.83;;
30505;SDS011;17292;51.600;4.994;2023-07-24T09:48:15;5.20;;;3.63;;
30505;SDS011;17292;51.600;4.994;2023-07-24T09:50:43;5.97;;;3.47;;
30505;SDS011;17292;51.600;4.994;2023-07-24T09:55:57;6.50;;;3.70;;
30505;SDS011;17292;51.600;4.994;2023-07-24T09:58:23;7.32;;;3.42;;
30505;SDS011;17292;51.600;4.994;2023-07-24T10:00:50;6.32;;;3.78;;
30505;SDS011;17292;51.600;4.994;2023-07-24T10:03:16;6.95;;;3.60;;
30505;SDS011;17292;51.600;4.994;2023-07-24T10:05:46;8.32;;;4.00;;
30505;SDS011;17292;51.600;4.994;2023-07-24T10:08:14;6.07;;;4.30;;
30505;SDS011;17292;51.600;4.994;2023-07-24T10:10:41;8.75;;;4.03;;
30505;SDS011;17292;51.600;4.994;2023-07-24T10:13:08;4.63;;;3.70;;
30505;SDS011;17292;51.600;4.994;2023-07-24T10:15:36;9.45;;;4.25;;
30505;SDS011;17292;51.600;4.994;2023-07-24T10:18:04;6.82;;;3.95;;
30505;SDS011;17292;51.600;4.994;2023-07-24T10:20:34;14.02;;;5.00;;
30505;SDS011;17292;51.600;4.994;2023-07-24T10:23:00;6.60;;;4.20;;
30505;SDS011;17292;51.600;4.994;2023-07-24T10:25:30;9.98;;;4.78;;
30505;SDS011;17292;51.600;4.994;2023-07-24T10:28:07;10.23;;;4.30;;
30505;SDS011;17292;51.600;4.994;2023-07-24T10:30:39;13.38;;;5.05;;
30505;SDS011;17292;51.600;4.994;2023-07-24T10:33:10;18.08;;;5.00;;
30505;SDS011;17292;51.600;4.994;2023-07-24T10:35:37;17.40;;;5.25;;
30505;SDS011;17292;51.600;4.994;2023-07-24T10:38:03;13.57;;;5.40;;
30505;SDS011;17292;51.600;4.994;2023-07-24T10:40:29;11.52;;;5.35;;
30505;SDS011;17292;51.600;4.994;2023-07-24T10:43:05;14.93;;;5.28;;
30505;SDS011;17292;51.600;4.994;2023-07-24T10:45:38;9.57;;;4.55;;
30505;SDS011;17292;51.600;4.994;2023-07-24T10:48:05;12.98;;;5.40;;
30505;SDS011;17292;51.600;4.994;2023-07-24T10:50:38;9.88;;;4.10;;
30505;SDS011;17292;51.600;4.994;2023-07-24T10:53:04;19.80;;;5.25;;
30505;SDS011;17292;51.600;4.994;2023-07-24T10:55:30;15.93;;;4.65;;
30505;SDS011;17292;51.600;4.994;2023-07-24T10:57:56;17.88;;;5.15;;
30505;SDS011;17292;51.600;4.994;2023-07-24T11:00:23;14.05;;;4.90;;
30505;SDS011;17292;51.600;4.994;2023-07-24T11:02:49;14.38;;;4.88;;
30505;SDS011;17292;51.600;4.994;2023-07-24T11:05:18;8.27;;;4.47;;
30505;SDS011;17292;51.600;4.994;2023-07-24T11:07:46;12.82;;;4.90;;
30505;SDS011;17292;51.600;4.994;2023-07-24T11:10:19;11.40;;;4.22;;
30505;SDS011;17292;51.600;4.994;2023-07-24T11:12:45;11.48;;;4.60;;
30505;SDS011;17292;51.600;4.994;2023-07-24T11:15:12;6.10;;;4.03;;
30505;SDS011;17292;51.600;4.994;2023-07-24T11:17:39;8.15;;;4.60;;
30505;SDS011;17292;51.600;4.994;2023-07-24T11:20:14;8.85;;;4.68;;
30505;SDS011;17292;51.600;4.994;2023-07-24T11:22:41;8.73;;;4.32;;
30505;SDS011;17292;51.600;4.994;2023-07-24T11:25:08;10.60;;;4.80;;
30505;SDS011;17292;51.600;4.994;2023-07-24T11:27:41;11.32;;;4.40;;
30505;SDS011;17292;51.600;4.994;2023-07-24T11:30:10;12.88;;;4.90;;
30505;SDS011;17292;51.600;4.994;2023-07-24T11:32:40;13.68;;;4.82;;
30505;SDS011;17292;51.600;4.994;2023-07-24T11:35:07;7.82;;;4.70;;
30505;SDS011;17292;51.600;4.994;2023-07-24T11:37:34;14.70;;;5.82;;
30505;SDS011;17292;51.600;4.994;2023-07-24T11:40:01;12.52;;;5.13;;
30505;SDS011;17292;51.600;4.994;2023-07-24T11:42:40;8.50;;;4.82;;
30505;SDS011;17292;51.600;4.994;2023-07-24T11:45:09;14.18;;;5.32;;
30505;SDS011;17292;51.600;4.994;2023-07-24T11:47:48;12.32;;;5.03;;
30505;SDS011;17292;51.600;4.994;2023-07-24T11:50:15;11.35;;;5.28;;
30505;SDS011;17292;51.600;4.994;2023-07-24T11:52:42;7.90;;;4.63;;
30505;SDS011;17292;51.600;4.994;2023-07-24T11:55:10;13.07;;;4.70;;
30505;SDS011;17292;51.600;4.994;2023-07-24T11:57:36;9.13;;;5.22;;
30505;SDS011;17292;51.600;4.994;2023-07-24T12:00:03;8.75;;;4.88;;
30505;SDS011;17292;51.600;4.994;2023-07-24T12:02:29;14.32;;;4.85;;
30505;SDS011;17292;51.600;4.994;2023-07-24T12:04:58;11.80;;;4.65;;
30505;SDS011;17292;51.600;4.994;2023-07-24T12:07:29;14.05;;;4.50;;
30505;SDS011;17292;51.600;4.994;2023-07-24T12:09:56;9.33;;;4.90;;
30505;SDS011;17292;51.600;4.994;2023-07-24T12:12:22;9.00;;;4.60;;
30505;SDS011;17292;51.600;4.994;2023-07-24T12:14:48;11.50;;;5.20;;
30505;SDS011;17292;51.600;4.994;2023-07-24T12:17:18;14.35;;;5.32;;
30505;SDS011;17292;51.600;4.994;2023-07-24T12:19:45;9.13;;;5.30;;
30505;SDS011;17292;51.600;4.994;2023-07-24T12:22:12;11.10;;;5.03;;
30505;SDS011;17292;51.600;4.994;2023-07-24T12:24:38;10.73;;;5.13;;
30505;SDS011;17292;51.600;4.994;2023-07-24T12:27:04;27.63;;;5.78;;
30505;SDS011;17292;51.600;4.994;2023-07-24T12:29:30;15.15;;;5.50;;
30505;SDS011;17292;51.600;4.994;2023-07-24T12:31:57;13.80;;;5.20;;
30505;SDS011;17292;51.600;4.994;2023-07-24T12:34:23;9.65;;;5.25;;
30505;SDS011;17292;51.600;4.994;2023-07-24T12:36:49;9.48;;;5.30;;
30505;SDS011;17292;51.600;4.994;2023-07-24T12:39:17;16.13;;;6.22;;
30505;SDS011;17292;51.600;4.994;2023-07-24T12:41:43;15.48;;;5.82;;
30505;SDS011;17292;51.600;4.994;2023-07-24T12:44:09;12.55;;;4.97;;
30505;SDS011;17292;51.600;4.994;2023-07-24T12:46:35;13.70;;;5.18;;
30505;SDS011;17292;51.600;4.994;2023-07-24T12:49:01;13.45;;;5.10;;
30505;SDS011;17292;51.600;4.994;2023-07-24T12:51:27;12.27;;;5.07;;
30505;SDS011;17292;51.600;4.994;2023-07-24T12:53:53;9.32;;;5.22;;
30505;SDS011;17292;51.600;4.994;2023-07-24T12:56:19;11.93;;;5.35;;
30505;SDS011;17292;51.600;4.994;2023-07-24T12:58:46;13.90;;;5.60;;
30505;SDS011;17292;51.600;4.994;2023-07-24T13:01:12;15.60;;;5.95;;
30505;SDS011;17292;51.600;4.994;2023-07-24T13:03:38;9.77;;;5.60;;
30505;SDS011;17292;51.600;4.994;2023-07-24T13:06:04;12.02;;;5.10;;
30505;SDS011;17292;51.600;4.994;2023-07-24T13:08:30;12.57;;;5.57;;
30505;SDS011;17292;51.600;4.994;2023-07-24T13:10:56;14.55;;;5.90;;
30505;SDS011;17292;51.600;4.994;2023-07-24T13:13:22;15.95;;;5.63;;
30505;SDS011;17292;51.600;4.994;2023-07-24T13:15:49;13.40;;;5.30;;
30505;SDS011;17292;51.600;4.994;2023-07-24T13:18:16;17.73;;;6.10;;
30505;SDS011;17292;51.600;4.994;2023-07-24T13:20:45;19.63;;;6.32;;
30505;SDS011;17292;51.600;4.994;2023-07-24T13:23:11;15.85;;;5.68;;
30505;SDS011;17292;51.600;4.994;2023-07-24T13:25:37;11.30;;;5.47;;
30505;SDS011;17292;51.600;4.994;2023-07-24T13:28:03;14.90;;;6.25;;
30505;SDS011;17292;51.600;4.994;2023-07-24T13:30:29;13.82;;;5.80;;
30505;SDS011;17292;51.600;4.994;2023-07-24T13:32:56;13.10;;;5.28;;
30505;SDS011;17292;51.600;4.994;2023-07-24T13:35:22;17.58;;;5.88;;
30505;SDS011;17292;51.600;4.994;2023-07-24T13:37:48;19.58;;;5.82;;
30505;SDS011;17292;51.600;4.994;2023-07-24T13:40:14;18.88;;;5.70;;
30505;SDS011;17292;51.600;4.994;2023-07-24T13:42:41;17.15;;;5.28;;
30505;SDS011;17292;51.600;4.994;2023-07-24T13:45:07;15.52;;;5.47;;
30505;SDS011;17292;51.600;4.994;2023-07-24T13:47:33;11.32;;;5.97;;
30505;SDS011;17292;51.600;4.994;2023-07-24T13:49:59;9.60;;;5.35;;
30505;SDS011;17292;51.600;4.994;2023-07-24T13:52:28;9.50;;;5.40;;
30505;SDS011;17292;51.600;4.994;2023-07-24T13:54:54;12.77;;;5.38;;
30505;SDS011;17292;51.600;4.994;2023-07-24T13:57:21;10.48;;;5.47;;
30505;SDS011;17292;51.600;4.994;2023-07-24T13:59:47;9.23;;;5.18;;
30505;SDS011;17292;51.600;4.994;2023-07-24T14:02:13;15.45;;;5.75;;
30505;SDS011;17292;51.600;4.994;2023-07-24T14:04:39;15.35;;;6.05;;
30505;SDS011;17292;51.600;4.994;2023-07-24T14:07:06;12.57;;;5.53;;
30505;SDS011;17292;51.600;4.994;2023-07-24T14:09:32;15.80;;;5.90;;
30505;SDS011;17292;51.600;4.994;2023-07-24T14:12:00;14.35;;;6.35;;
30505;SDS011;17292;51.600;4.994;2023-07-24T14:14:26;12.90;;;5.35;;
30505;SDS011;17292;51.600;4.994;2023-07-24T14:16:52;12.20;;;5.43;;
30505;SDS011;17292;51.600;4.994;2023-07-24T14:19:18;9.18;;;5.53;;
30505;SDS011;17292;51.600;4.994;2023-07-24T14:21:45;12.48;;;5.60;;
30505;SDS011;17292;51.600;4.994;2023-07-24T14:24:11;10.60;;;5.13;;
30505;SDS011;17292;51.600;4.994;2023-07-24T14:26:38;11.60;;;5.82;;
30505;SDS011;17292;51.600;4.994;2023-07-24T14:29:04;10.80;;;5.55;;
30505;SDS011;17292;51.600;4.994;2023-07-24T14:31:31;14.43;;;5.97;;
30505;SDS011;17292;51.600;4.994;2023-07-24T14:33:57;10.77;;;5.63;;
30505;SDS011;17292;51.600;4.994;2023-07-24T14:36:24;12.05;;;5.68;;
30505;SDS011;17292;51.600;4.994;2023-07-24T14:38:51;11.77;;;5.93;;
30505;SDS011;17292;51.600;4.994;2023-07-24T14:41:17;8.32;;;5.20;;
30505;SDS011;17292;51.600;4.994;2023-07-24T14:43:43;7.65;;;5.63;;
30505;SDS011;17292;51.600;4.994;2023-07-24T14:46:10;10.18;;;5.25;;
30505;SDS011;17292;51.600;4.994;2023-07-24T14:48:36;12.60;;;5.57;;
30505;SDS011;17292;51.600;4.994;2023-07-24T14:51:02;13.43;;;5.60;;